createdAt,value
2018-11-14T00:00:57.235Z,6.13
2018-11-14T00:01:57.234Z,6.18
2018-11-14T00:02:57.258Z,6.18
2018-11-14T00:03:57.197Z,6.18
2018-11-14T00:04:57.186Z,6.21
2018-11-14T00:05:57.179Z,6.19
2018-11-14T00:06:57.165Z,6.10
2018-11-14T00:07:57.190Z,6.13
2018-11-14T00:08:57.165Z,6.10
2018-11-14T00:09:57.131Z,6.19
2018-11-14T00:10:57.119Z,6.19
2018-11-14T00:11:57.120Z,6.18
2018-11-14T00:12:57.117Z,6.11
2018-11-14T00:13:57.101Z,6.19
2018-11-14T00:14:57.097Z,6.16
2018-11-14T00:15:57.062Z,6.10
2018-11-14T00:16:57.057Z,6.03
2018-11-14T00:17:57.041Z,6.13
2018-11-14T00:18:57.055Z,6.07
2018-11-14T00:19:57.033Z,6.00
2018-11-14T00:20:57.011Z,6.04
2018-11-14T00:21:57.004Z,6.04
2018-11-14T00:22:56.991Z,6.07
2018-11-14T00:23:57.001Z,5.96
2018-11-14T00:24:56.982Z,6.10
2018-11-14T00:25:56.961Z,6.10
2018-11-14T00:26:56.943Z,5.98
2018-11-14T00:27:57.035Z,6.11
2018-11-14T00:28:57.022Z,6.07
2018-11-14T00:29:56.934Z,6.11
2018-11-14T00:30:56.913Z,5.98
2018-11-14T00:31:56.895Z,6.13
2018-11-14T00:32:56.878Z,6.04
2018-11-14T00:33:56.883Z,6.13
2018-11-14T00:34:57.481Z,6.03
2018-11-14T00:35:56.846Z,6.09
2018-11-14T00:36:57.148Z,6.06
2018-11-14T00:37:56.832Z,6.16
2018-11-14T00:38:56.841Z,6.03
2018-11-14T00:39:56.819Z,6.00
2018-11-14T00:40:56.791Z,6.03
2018-11-14T00:41:56.792Z,6.03
2018-11-14T00:42:56.778Z,6.06
2018-11-14T00:43:56.759Z,6.03
2018-11-14T00:44:56.771Z,5.92
2018-11-14T00:45:56.730Z,5.98
2018-11-14T00:46:56.719Z,6.01
2018-11-14T00:47:56.714Z,6.06
2018-11-14T00:48:56.697Z,6.13
2018-11-14T00:49:56.711Z,6.03
2018-11-14T00:50:56.679Z,6.03
2018-11-14T00:51:56.660Z,6.01
2018-11-14T00:52:56.651Z,6.04
2018-11-14T00:53:56.651Z,5.98
2018-11-14T00:54:56.667Z,6.00
2018-11-14T00:55:56.617Z,6.00
2018-11-14T00:56:56.606Z,6.04
2018-11-14T00:57:56.597Z,6.03
2018-11-14T00:58:56.587Z,5.98
2018-11-14T00:59:56.618Z,6.00
2018-11-14T01:00:56.584Z,6.00
2018-11-14T01:01:56.565Z,5.92
2018-11-14T01:02:56.543Z,5.96
2018-11-14T01:03:56.526Z,5.91
2018-11-14T01:04:56.679Z,5.93
2018-11-14T01:05:56.527Z,5.98
2018-11-14T01:06:56.504Z,6.01
2018-11-14T01:07:56.486Z,5.95
2018-11-14T01:08:56.471Z,5.93
2018-11-14T01:09:56.463Z,5.96
2018-11-14T01:10:56.468Z,5.93
2018-11-14T01:11:56.483Z,6.00
2018-11-14T01:12:56.503Z,5.89
2018-11-14T01:13:56.415Z,5.81
2018-11-14T01:14:56.402Z,5.81
2018-11-14T01:15:56.420Z,5.81
2018-11-14T01:16:56.385Z,5.74
2018-11-14T01:17:56.377Z,5.83
2018-11-14T01:18:56.359Z,5.85
2018-11-14T01:19:56.347Z,5.73
2018-11-14T01:20:56.339Z,5.73
2018-11-14T01:21:56.357Z,5.82
2018-11-14T01:22:56.312Z,5.88
2018-11-14T01:23:56.319Z,5.83
2018-11-14T01:24:56.302Z,5.88
2018-11-14T01:25:56.280Z,5.75
2018-11-14T01:26:56.334Z,5.88
2018-11-14T01:27:56.285Z,5.75
2018-11-14T01:28:56.246Z,5.85
2018-11-14T01:29:56.252Z,5.82
2018-11-14T01:30:56.225Z,5.85
2018-11-14T01:31:56.237Z,5.86
2018-11-14T01:32:56.200Z,5.98
2018-11-14T01:33:56.237Z,5.83
2018-11-14T01:34:56.202Z,5.92
2018-11-14T01:35:56.364Z,5.89
2018-11-14T01:36:56.186Z,5.91
2018-11-14T01:37:56.145Z,5.89
2018-11-14T01:38:56.135Z,5.83
2018-11-14T01:39:56.129Z,5.89
2018-11-14T01:40:56.154Z,5.81
2018-11-14T01:41:56.136Z,5.83
2018-11-14T01:42:56.090Z,5.91
2018-11-14T01:43:56.085Z,5.88
2018-11-14T01:44:56.072Z,5.91
2018-11-14T01:45:56.066Z,5.85
2018-11-14T01:46:56.080Z,5.83
2018-11-14T01:47:56.072Z,5.82
2018-11-14T01:48:56.027Z,5.86
2018-11-14T01:49:56.027Z,5.83
2018-11-14T01:50:56.012Z,5.74
2018-11-14T01:51:56.007Z,5.82
2018-11-14T01:52:56.015Z,5.75
2018-11-14T01:53:55.996Z,5.68
2018-11-14T01:54:55.964Z,5.81
2018-11-14T01:55:55.957Z,5.68
2018-11-14T01:56:55.947Z,5.77
2018-11-14T01:57:55.948Z,5.77
2018-11-14T01:58:55.953Z,5.71
2018-11-14T01:59:55.930Z,5.67
2018-11-14T02:00:55.904Z,5.64
2018-11-14T02:01:55.890Z,5.63
2018-11-14T02:02:55.932Z,5.68
2018-11-14T02:03:55.886Z,5.60
2018-11-14T02:04:55.859Z,5.57
2018-11-14T02:05:55.861Z,5.59
2018-11-14T02:06:55.836Z,5.63
2018-11-14T02:07:55.877Z,5.60
2018-11-14T02:08:55.820Z,5.57
2018-11-14T02:09:55.833Z,5.66
2018-11-14T02:10:55.798Z,5.64
2018-11-14T02:11:55.798Z,5.60
2018-11-14T02:12:55.819Z,5.63
2018-11-14T02:13:55.779Z,5.57
2018-11-14T02:14:55.766Z,5.70
2018-11-14T02:15:55.758Z,5.59
2018-11-14T02:16:55.733Z,5.64
2018-11-14T02:17:55.753Z,5.71
2018-11-14T02:18:55.714Z,5.73
2018-11-14T02:19:55.709Z,5.64
2018-11-14T02:20:55.701Z,5.60
2018-11-14T02:21:55.701Z,5.60
2018-11-14T02:22:55.680Z,5.66
2018-11-14T02:23:55.680Z,5.67
2018-11-14T02:24:55.655Z,5.67
2018-11-14T02:25:55.645Z,5.64
2018-11-14T02:26:55.640Z,5.66
2018-11-14T02:27:55.623Z,5.67
2018-11-14T02:28:55.648Z,5.63
2018-11-14T02:29:55.615Z,5.59
2018-11-14T02:30:55.589Z,5.60
2018-11-14T02:31:55.594Z,5.56
2018-11-14T02:32:55.642Z,5.52
2018-11-14T02:33:55.592Z,5.56
2018-11-14T02:34:55.553Z,5.49
2018-11-14T02:35:55.548Z,5.50
2018-11-14T02:36:55.528Z,5.55
2018-11-14T02:37:55.537Z,5.56
2018-11-14T02:38:55.570Z,5.64
2018-11-14T02:39:55.523Z,5.63
2018-11-14T02:40:55.520Z,5.67
2018-11-14T02:41:55.477Z,5.59
2018-11-14T02:42:55.471Z,5.60
2018-11-14T02:43:55.480Z,5.67
2018-11-14T02:44:55.459Z,5.64
2018-11-14T02:45:55.452Z,5.59
2018-11-14T02:46:55.424Z,5.53
2018-11-14T02:47:55.420Z,5.56
2018-11-14T02:48:55.411Z,5.67
2018-11-14T02:49:55.423Z,5.60
2018-11-14T02:50:55.414Z,5.59
2018-11-14T02:51:55.396Z,5.59
2018-11-14T02:52:55.542Z,5.70
2018-11-14T02:53:55.374Z,5.64
2018-11-14T02:54:55.481Z,5.59
2018-11-14T02:55:55.334Z,5.64
2018-11-14T02:56:55.325Z,5.60
2018-11-14T02:57:55.315Z,5.67
2018-11-14T02:58:55.311Z,5.64
2018-11-14T02:59:55.317Z,5.67
2018-11-14T03:00:55.358Z,5.60
2018-11-14T03:01:55.279Z,5.59
2018-11-14T03:02:55.268Z,5.67
2018-11-14T03:03:55.244Z,5.68
2018-11-14T03:04:55.251Z,5.68
2018-11-14T03:05:55.233Z,5.71
2018-11-14T03:06:55.223Z,5.71
2018-11-14T03:07:55.209Z,5.66
2018-11-14T03:08:55.190Z,5.73
2018-11-14T03:09:55.284Z,5.68
2018-11-14T03:10:55.227Z,5.68
2018-11-14T03:11:55.171Z,5.77
2018-11-14T03:12:55.148Z,5.74
2018-11-14T03:13:55.135Z,5.68
2018-11-14T03:14:55.131Z,5.63
2018-11-14T03:15:55.129Z,5.60
2018-11-14T03:16:55.102Z,5.68
2018-11-14T03:17:55.107Z,5.66
2018-11-14T03:18:55.081Z,5.68
2018-11-14T03:19:55.079Z,5.74
2018-11-14T03:20:55.087Z,5.59
2018-11-14T03:21:55.047Z,5.67
2018-11-14T03:22:55.045Z,5.60
2018-11-14T03:23:55.026Z,5.55
2018-11-14T03:24:55.013Z,5.56
2018-11-14T03:25:55.038Z,5.59
2018-11-14T03:26:54.997Z,5.57
2018-11-14T03:27:54.979Z,5.63
2018-11-14T03:28:54.977Z,5.66
2018-11-14T03:29:54.961Z,5.64
2018-11-14T03:30:54.975Z,5.64
2018-11-14T03:31:54.938Z,5.68
2018-11-14T03:32:54.922Z,5.67
2018-11-14T03:33:54.920Z,5.66
2018-11-14T03:34:54.903Z,5.59
2018-11-14T03:35:54.920Z,5.70
2018-11-14T03:36:54.878Z,5.60
2018-11-14T03:37:54.878Z,5.67
2018-11-14T03:38:54.961Z,5.70
2018-11-14T03:39:54.866Z,5.59
2018-11-14T03:40:54.876Z,5.64
2018-11-14T03:41:54.941Z,5.63
2018-11-14T03:42:54.818Z,5.53
2018-11-14T03:43:54.803Z,5.60
2018-11-14T03:44:54.812Z,5.60
2018-11-14T03:45:54.798Z,5.71
2018-11-14T03:46:54.800Z,5.70
2018-11-14T03:47:54.775Z,5.60
2018-11-14T03:48:54.766Z,5.70
2018-11-14T03:49:54.753Z,5.60
2018-11-14T03:50:54.769Z,5.75
2018-11-14T03:51:54.737Z,5.71
2018-11-14T03:52:54.730Z,5.59
2018-11-14T03:53:54.710Z,5.56
2018-11-14T03:54:54.688Z,5.63
2018-11-14T03:55:54.681Z,5.73
2018-11-14T03:56:54.686Z,5.71
2018-11-14T03:57:54.666Z,5.64
2018-11-14T03:58:54.651Z,5.64
2018-11-14T03:59:54.649Z,5.73
2018-11-14T04:00:54.624Z,5.60
2018-11-14T04:01:54.638Z,5.73
2018-11-14T04:02:54.601Z,5.67
2018-11-14T04:03:54.597Z,5.64
2018-11-14T04:04:54.587Z,5.63
2018-11-14T04:05:54.593Z,5.70
2018-11-14T04:06:54.594Z,5.70
2018-11-14T04:07:54.551Z,5.70
2018-11-14T04:08:54.535Z,5.68
2018-11-14T04:09:54.557Z,5.75
2018-11-14T04:10:54.522Z,5.66
2018-11-14T04:11:54.557Z,5.77
2018-11-14T04:12:54.495Z,5.73
2018-11-14T04:13:54.479Z,5.74
2018-11-14T04:14:54.475Z,5.74
2018-11-14T04:15:54.456Z,5.74
2018-11-14T04:16:54.469Z,5.74
2018-11-14T04:17:54.434Z,5.67
2018-11-14T04:18:54.423Z,5.70
2018-11-14T04:19:54.417Z,5.71
2018-11-14T04:20:54.403Z,5.70
2018-11-14T04:21:54.421Z,5.74
2018-11-14T04:22:54.387Z,5.73
2018-11-14T04:23:54.370Z,5.71
2018-11-14T04:24:54.363Z,5.70
2018-11-14T04:25:54.348Z,5.63
2018-11-14T04:26:54.341Z,5.64
2018-11-14T04:27:54.349Z,5.67
2018-11-14T04:28:54.326Z,5.71
2018-11-14T04:29:54.306Z,5.68
2018-11-14T04:30:54.295Z,5.60
2018-11-14T04:31:54.285Z,5.64
2018-11-14T04:32:54.297Z,5.55
2018-11-14T04:33:54.265Z,5.56
2018-11-14T04:34:54.273Z,5.60
2018-11-14T04:35:54.245Z,5.59
2018-11-14T04:36:54.241Z,5.56
2018-11-14T04:37:54.307Z,5.53
2018-11-14T04:38:54.210Z,5.50
2018-11-14T04:39:54.198Z,5.53
2018-11-14T04:40:54.211Z,5.53
2018-11-14T04:41:54.196Z,5.46
2018-11-14T04:42:54.182Z,5.45
2018-11-14T04:43:54.157Z,5.49
2018-11-14T04:44:54.163Z,5.40
2018-11-14T04:45:54.137Z,5.43
2018-11-14T04:46:54.188Z,5.48
2018-11-14T04:47:54.203Z,5.43
2018-11-14T04:48:54.169Z,5.45
2018-11-14T04:49:54.095Z,5.45
2018-11-14T04:50:54.093Z,5.50
2018-11-14T04:51:54.068Z,5.49
2018-11-14T04:52:54.235Z,5.43
2018-11-14T04:53:54.050Z,5.38
2018-11-14T04:54:54.039Z,5.43
2018-11-14T04:55:54.023Z,5.40
2018-11-14T04:56:54.017Z,5.46
2018-11-14T04:57:54.025Z,5.45
2018-11-14T04:58:54.045Z,5.45
2018-11-14T04:59:53.983Z,5.48
2018-11-14T05:00:53.969Z,5.45
2018-11-14T05:01:53.969Z,5.43
2018-11-14T05:02:53.954Z,5.38
2018-11-14T05:03:53.957Z,5.46
2018-11-14T05:04:53.935Z,5.40
2018-11-14T05:05:53.916Z,5.41
2018-11-14T05:06:53.910Z,5.40
2018-11-14T05:07:53.902Z,5.40
2018-11-14T05:08:53.908Z,5.40
2018-11-14T05:09:53.870Z,5.38
2018-11-14T05:10:53.887Z,5.37
2018-11-14T05:11:53.850Z,5.32
2018-11-14T05:12:53.926Z,5.32
2018-11-14T05:13:53.827Z,5.32
2018-11-14T05:14:53.836Z,5.30
2018-11-14T05:15:53.809Z,5.38
2018-11-14T05:16:53.800Z,5.34
2018-11-14T05:17:53.792Z,5.32
2018-11-14T05:18:53.798Z,5.35
2018-11-14T05:19:53.781Z,5.34
2018-11-14T05:20:53.753Z,5.40
2018-11-14T05:21:53.747Z,5.32
2018-11-14T05:22:53.750Z,5.30
2018-11-14T05:23:53.722Z,5.32
2018-11-14T05:24:53.742Z,5.34
2018-11-14T05:25:53.709Z,5.27
2018-11-14T05:26:53.739Z,5.34
2018-11-14T05:27:53.680Z,5.30
2018-11-14T05:28:53.675Z,5.19
2018-11-14T05:29:53.686Z,5.25
2018-11-14T05:30:53.648Z,5.28
2018-11-14T05:31:53.702Z,5.25
2018-11-14T05:32:53.629Z,5.25
2018-11-14T05:33:53.621Z,5.22
2018-11-14T05:34:53.632Z,5.27
2018-11-14T05:35:53.597Z,5.23
2018-11-14T05:36:53.590Z,5.27
2018-11-14T05:37:53.577Z,5.30
2018-11-14T05:38:53.568Z,5.30
2018-11-14T05:39:53.719Z,5.25
2018-11-14T05:40:53.581Z,5.20
2018-11-14T05:41:53.574Z,5.23
2018-11-14T05:42:53.526Z,5.23
2018-11-14T05:43:53.516Z,5.25
2018-11-14T05:44:53.533Z,5.27
2018-11-14T05:45:53.527Z,5.31
2018-11-14T05:46:53.487Z,5.31
2018-11-14T05:47:53.478Z,5.31
2018-11-14T05:48:53.514Z,5.37
2018-11-14T05:49:53.491Z,5.32
2018-11-14T05:50:53.461Z,5.31
2018-11-14T05:51:53.433Z,5.38
2018-11-14T05:52:53.427Z,5.43
2018-11-14T05:53:53.412Z,5.45
2018-11-14T05:54:53.403Z,5.40
2018-11-14T05:55:53.519Z,5.45
2018-11-14T05:56:53.380Z,5.48
2018-11-14T05:57:53.373Z,5.45
2018-11-14T05:58:53.377Z,5.46
2018-11-14T05:59:53.352Z,5.38
2018-11-14T06:00:53.338Z,5.43
2018-11-14T06:01:53.358Z,5.46
2018-11-14T06:02:53.326Z,5.45
2018-11-14T06:03:53.316Z,5.35
2018-11-14T06:04:53.299Z,5.48
2018-11-14T06:05:53.346Z,5.46
2018-11-14T06:06:53.289Z,5.52
2018-11-14T06:07:53.272Z,5.53
2018-11-14T06:08:53.261Z,5.53
2018-11-14T06:09:53.291Z,5.59
2018-11-14T06:10:53.260Z,5.52
2018-11-14T06:11:53.267Z,5.55
2018-11-14T06:12:53.216Z,5.67
2018-11-14T06:13:53.200Z,5.53
2018-11-14T06:14:53.191Z,5.49
2018-11-14T06:15:53.179Z,5.38
2018-11-14T06:16:53.209Z,5.48
2018-11-14T06:17:53.165Z,5.43
2018-11-14T06:18:53.152Z,5.45
2018-11-14T06:19:53.137Z,5.48
2018-11-14T06:20:53.130Z,5.43
2018-11-14T06:21:53.213Z,5.41
2018-11-14T06:22:53.106Z,5.32
2018-11-14T06:23:53.111Z,5.35
2018-11-14T06:24:53.087Z,5.32
2018-11-14T06:25:53.076Z,5.27
2018-11-14T06:26:53.085Z,5.32
2018-11-14T06:27:53.052Z,5.31
2018-11-14T06:28:53.049Z,5.25
2018-11-14T06:29:53.080Z,5.30
2018-11-14T06:30:53.024Z,5.32
2018-11-14T06:31:53.033Z,5.32
2018-11-14T06:32:52.998Z,5.35
2018-11-14T06:33:52.992Z,5.35
2018-11-14T06:34:52.983Z,5.28
2018-11-14T06:35:52.984Z,5.35
2018-11-14T06:36:52.989Z,5.38
2018-11-14T06:37:52.968Z,5.25
2018-11-14T06:38:52.939Z,5.19
2018-11-14T06:39:52.935Z,5.27
2018-11-14T06:40:52.923Z,5.31
2018-11-14T06:41:52.934Z,5.28
2018-11-14T06:42:52.933Z,5.27
2018-11-14T06:43:52.880Z,5.25
2018-11-14T06:44:52.875Z,5.32
2018-11-14T06:45:52.880Z,5.32
2018-11-14T06:46:52.859Z,5.35
2018-11-14T06:47:52.865Z,5.37
2018-11-14T06:48:52.832Z,5.25
2018-11-14T06:49:52.872Z,5.22
2018-11-14T06:50:52.808Z,5.28
2018-11-14T06:51:52.801Z,5.27
2018-11-14T06:52:52.833Z,5.23
2018-11-14T06:53:52.796Z,5.19
2018-11-14T06:54:52.774Z,5.17
2018-11-14T06:55:52.758Z,5.16
2018-11-14T06:56:52.755Z,5.20
2018-11-14T06:57:52.755Z,5.20
2018-11-14T06:58:52.835Z,5.17
2018-11-14T06:59:52.776Z,5.17
2018-11-14T07:00:52.702Z,5.16
2018-11-14T07:01:52.688Z,5.17
2018-11-14T07:02:52.703Z,5.14
2018-11-14T07:03:52.674Z,5.14
2018-11-14T07:04:52.694Z,5.13
2018-11-14T07:05:52.793Z,5.19
2018-11-14T07:06:52.634Z,5.12
2018-11-14T07:07:52.646Z,5.16
2018-11-14T07:08:52.645Z,5.16
2018-11-14T07:09:52.603Z,5.19
2018-11-14T07:10:52.632Z,5.19
2018-11-14T07:11:52.611Z,5.14
2018-11-14T07:12:52.568Z,5.19
2018-11-14T07:13:52.575Z,5.17
2018-11-14T07:14:52.548Z,5.02
2018-11-14T07:15:52.533Z,5.14
2018-11-14T07:16:52.535Z,5.16
2018-11-14T07:17:52.599Z,5.17
2018-11-14T07:18:52.519Z,5.10
2018-11-14T07:19:52.493Z,5.16
2018-11-14T07:20:52.488Z,5.14
2018-11-14T07:21:52.472Z,5.17
2018-11-14T07:22:52.466Z,5.19
2018-11-14T07:23:52.533Z,5.14
2018-11-14T07:24:52.436Z,5.14
2018-11-14T07:25:52.421Z,5.16
2018-11-14T07:26:52.413Z,5.19
2018-11-14T07:27:52.409Z,5.16
2018-11-14T07:28:52.414Z,5.13
2018-11-14T07:29:52.377Z,5.16
2018-11-14T07:30:52.369Z,5.14
2018-11-14T07:31:52.356Z,5.14
2018-11-14T07:32:52.351Z,5.12
2018-11-14T07:33:52.356Z,5.14
2018-11-14T07:34:52.356Z,5.12
2018-11-14T07:35:52.310Z,5.19
2018-11-14T07:36:52.303Z,5.13
2018-11-14T07:37:52.349Z,5.20
2018-11-14T07:38:52.304Z,5.17
2018-11-14T07:39:52.287Z,5.14
2018-11-14T07:40:52.255Z,5.22
2018-11-14T07:41:52.250Z,5.20
2018-11-14T07:42:52.237Z,5.22
2018-11-14T07:43:52.227Z,5.27
2018-11-14T07:44:52.243Z,5.28
2018-11-14T07:45:52.206Z,5.30
2018-11-14T07:46:52.191Z,5.35
2018-11-14T07:47:52.180Z,5.38
2018-11-14T07:48:52.173Z,5.40
2018-11-14T07:49:52.269Z,5.35
2018-11-14T07:50:52.155Z,5.41
2018-11-14T07:51:52.145Z,5.52
2018-11-14T07:52:52.123Z,5.40
2018-11-14T07:53:52.190Z,5.55
2018-11-14T07:54:52.130Z,5.53
2018-11-14T07:55:52.290Z,5.63
2018-11-14T07:56:52.081Z,5.63
2018-11-14T07:57:52.088Z,5.64
2018-11-14T07:58:52.058Z,5.64
2018-11-14T07:59:52.092Z,5.68
2018-11-14T08:00:52.061Z,5.63
2018-11-14T08:01:52.030Z,5.67
2018-11-14T08:02:52.020Z,5.78
2018-11-14T08:03:52.009Z,5.70
2018-11-14T08:04:51.995Z,5.78
2018-11-14T08:05:52.052Z,5.83
2018-11-14T08:06:51.998Z,5.89
2018-11-14T08:07:52.077Z,5.88
2018-11-14T08:08:51.957Z,5.81
2018-11-14T08:09:51.943Z,5.88
2018-11-14T08:10:51.936Z,5.92
2018-11-14T08:11:51.945Z,6.04
2018-11-14T08:12:51.915Z,5.96
2018-11-14T08:13:51.965Z,5.95
2018-11-14T08:14:51.889Z,5.98
2018-11-14T08:15:52.103Z,6.00
2018-11-14T08:16:51.904Z,5.96
2018-11-14T08:17:51.851Z,6.04
2018-11-14T08:18:51.866Z,6.07
2018-11-14T08:19:51.877Z,6.01
2018-11-14T08:20:51.845Z,6.00
2018-11-14T08:21:51.844Z,5.98
2018-11-14T08:22:51.807Z,6.07
2018-11-14T08:23:51.786Z,5.96
2018-11-14T08:24:51.831Z,5.98
2018-11-14T08:25:51.767Z,6.07
2018-11-14T08:26:51.770Z,6.07
2018-11-14T08:27:51.746Z,6.16
2018-11-14T08:28:51.735Z,6.14
2018-11-14T08:29:51.732Z,6.26
2018-11-14T08:30:51.706Z,6.19
2018-11-14T08:31:51.811Z,6.29
2018-11-14T08:32:51.704Z,6.33
2018-11-14T08:33:51.705Z,6.28
2018-11-14T08:34:51.659Z,6.40
2018-11-14T08:35:51.647Z,6.43
2018-11-14T08:36:51.638Z,6.41
2018-11-14T08:37:51.651Z,6.47
2018-11-14T08:38:51.620Z,6.48
2018-11-14T08:39:51.636Z,6.66
2018-11-14T08:40:51.596Z,6.59
2018-11-14T08:41:51.583Z,6.63
2018-11-14T08:42:51.593Z,6.63
2018-11-14T08:43:51.593Z,6.68
2018-11-14T08:44:51.550Z,6.63
2018-11-14T08:45:51.559Z,6.66
2018-11-14T08:46:51.523Z,6.66
2018-11-14T08:47:51.540Z,6.65
2018-11-14T08:48:51.506Z,6.62
2018-11-14T08:49:51.503Z,6.73
2018-11-14T08:50:51.483Z,6.86
2018-11-14T08:51:51.472Z,6.89
2018-11-14T08:52:51.484Z,6.89
2018-11-14T08:53:51.482Z,6.89
2018-11-14T08:54:51.442Z,6.90
2018-11-14T08:55:51.442Z,6.94
2018-11-14T08:56:51.417Z,6.99
2018-11-14T08:57:51.462Z,6.99
2018-11-14T08:58:51.391Z,6.99
2018-11-14T08:59:51.404Z,6.98
2018-11-14T09:00:51.373Z,7.01
2018-11-14T09:01:51.362Z,7.04
2018-11-14T09:02:51.405Z,6.99
2018-11-14T09:03:51.409Z,7.02
2018-11-14T09:04:51.329Z,6.99
2018-11-14T09:05:51.322Z,7.12
2018-11-14T09:06:51.306Z,7.01
2018-11-14T09:07:51.364Z,7.15
2018-11-14T09:08:51.312Z,7.04
2018-11-14T09:09:51.272Z,7.12
2018-11-14T09:10:51.262Z,7.13
2018-11-14T09:11:51.255Z,7.22
2018-11-14T09:12:51.316Z,7.17
2018-11-14T09:13:51.268Z,7.20
2018-11-14T09:14:51.217Z,7.15
2018-11-14T09:15:51.205Z,7.19
2018-11-14T09:16:51.190Z,7.22
2018-11-14T09:17:51.208Z,7.20
2018-11-14T09:18:51.301Z,7.27
2018-11-14T09:19:51.179Z,7.29
2018-11-14T09:20:51.190Z,7.32
2018-11-14T09:21:51.138Z,7.41
2018-11-14T09:22:51.125Z,7.44
2018-11-14T09:23:51.203Z,7.47
2018-11-14T09:24:51.140Z,7.58
2018-11-14T09:25:51.104Z,7.56
2018-11-14T09:26:51.084Z,7.55
2018-11-14T09:27:51.081Z,7.55
2018-11-14T09:28:51.060Z,7.53
2018-11-14T09:29:51.078Z,7.56
2018-11-14T09:30:51.040Z,7.53
2018-11-14T09:31:51.026Z,7.62
2018-11-14T09:32:51.017Z,7.74
2018-11-14T09:33:51.007Z,7.66
2018-11-14T09:34:51.007Z,7.77
2018-11-14T09:35:50.996Z,7.72
2018-11-14T09:36:50.976Z,7.75
2018-11-14T09:37:50.952Z,7.66
2018-11-14T09:38:50.941Z,7.74
2018-11-14T09:39:50.954Z,7.77
2018-11-14T09:40:50.948Z,7.62
2018-11-14T09:41:50.909Z,7.60
2018-11-14T09:42:50.899Z,7.55
2018-11-14T09:43:50.910Z,7.60
2018-11-14T09:44:50.909Z,7.56
2018-11-14T09:45:50.886Z,7.55
2018-11-14T09:46:50.855Z,7.50
2018-11-14T09:47:50.843Z,7.55
2018-11-14T09:48:50.833Z,7.55
2018-11-14T09:49:50.870Z,7.55
2018-11-14T09:50:50.821Z,7.55
2018-11-14T09:51:50.800Z,7.58
2018-11-14T09:52:50.791Z,7.55
2018-11-14T09:53:50.784Z,7.59
2018-11-14T09:54:50.765Z,7.58
2018-11-14T09:55:50.779Z,7.72
2018-11-14T09:56:50.788Z,7.66
2018-11-14T09:57:50.732Z,7.67
2018-11-14T09:58:50.746Z,7.60
2018-11-14T09:59:50.709Z,7.63
2018-11-14T10:00:50.741Z,7.60
2018-11-14T10:01:50.691Z,7.59
2018-11-14T10:02:50.829Z,7.66
2018-11-14T10:03:50.669Z,7.62
2018-11-14T10:04:50.728Z,7.72
2018-11-14T10:05:50.726Z,7.69
2018-11-14T10:06:50.626Z,7.81
2018-11-14T10:07:50.661Z,7.81
2018-11-14T10:08:50.747Z,7.85
2018-11-14T10:09:50.627Z,7.82
2018-11-14T10:10:50.623Z,7.87
2018-11-14T10:11:50.617Z,7.92
2018-11-14T10:12:50.574Z,7.82
2018-11-14T10:13:50.555Z,7.79
2018-11-14T10:14:50.549Z,7.84
2018-11-14T10:15:50.598Z,7.96
2018-11-14T10:16:50.534Z,8.07
2018-11-14T10:17:50.525Z,8.02
2018-11-14T10:18:50.497Z,8.12
2018-11-14T10:19:50.485Z,8.18
2018-11-14T10:20:50.476Z,8.22
2018-11-14T10:21:50.485Z,8.20
2018-11-14T10:22:50.444Z,8.33
2018-11-14T10:23:50.437Z,8.28
2018-11-14T10:24:50.475Z,8.35
2018-11-14T10:25:50.417Z,8.32
2018-11-14T10:26:50.423Z,8.28
2018-11-14T10:27:50.399Z,8.35
2018-11-14T10:28:50.385Z,8.30
2018-11-14T10:29:50.365Z,8.26
2018-11-14T10:30:50.397Z,8.37
2018-11-14T10:31:50.373Z,8.33
2018-11-14T10:32:50.348Z,8.32
2018-11-14T10:33:50.318Z,8.44
2018-11-14T10:34:50.311Z,8.42
2018-11-14T10:35:50.300Z,8.39
2018-11-14T10:36:50.281Z,8.42
2018-11-14T10:37:50.292Z,8.47
2018-11-14T10:38:50.258Z,8.42
2018-11-14T10:39:50.250Z,8.55
2018-11-14T10:40:50.255Z,8.58
2018-11-14T10:41:50.231Z,8.66
2018-11-14T10:42:50.308Z,8.58
2018-11-14T10:43:50.199Z,8.63
2018-11-14T10:44:50.191Z,8.63
2018-11-14T10:45:50.180Z,8.76
2018-11-14T10:46:50.166Z,8.76
2018-11-14T10:47:50.188Z,8.75
2018-11-14T10:48:50.146Z,8.68
2018-11-14T10:49:50.136Z,8.69
2018-11-14T10:50:50.168Z,8.71
2018-11-14T10:51:50.109Z,8.71
2018-11-14T10:52:50.115Z,8.71
2018-11-14T10:53:50.114Z,8.84
2018-11-14T10:54:50.069Z,8.93
2018-11-14T10:55:50.069Z,8.84
2018-11-14T10:56:50.076Z,8.91
2018-11-14T10:57:50.040Z,8.94
2018-11-14T10:58:50.055Z,8.90
2018-11-14T10:59:50.009Z,8.81
2018-11-14T11:00:50.001Z,8.94
2018-11-14T11:01:49.982Z,8.93
2018-11-14T11:02:49.987Z,8.81
2018-11-14T11:03:49.982Z,8.86
2018-11-14T11:04:50.008Z,8.91
2018-11-14T11:05:49.939Z,9.05
2018-11-14T11:06:49.928Z,9.16
2018-11-14T11:07:49.939Z,9.28
2018-11-14T11:08:49.951Z,9.50
2018-11-14T11:09:49.892Z,9.64
2018-11-14T11:10:49.882Z,9.70
2018-11-14T11:11:49.954Z,9.82
2018-11-14T11:12:49.853Z,9.81
2018-11-14T11:13:49.966Z,9.75
2018-11-14T11:14:49.873Z,9.60
2018-11-14T11:15:49.903Z,9.61
2018-11-14T11:16:49.842Z,9.57
2018-11-14T11:17:49.796Z,9.63
2018-11-14T11:18:49.862Z,9.60
2018-11-14T11:19:49.781Z,9.61
2018-11-14T11:20:49.761Z,9.63
2018-11-14T11:21:49.753Z,9.56
2018-11-14T11:22:49.797Z,9.63
2018-11-14T11:23:49.748Z,9.73
2018-11-14T11:24:49.708Z,9.79
2018-11-14T11:25:49.726Z,9.89
2018-11-14T11:26:49.689Z,9.88
2018-11-14T11:27:49.670Z,9.86
2018-11-14T11:28:49.659Z,9.86
2018-11-14T11:29:49.665Z,9.86
2018-11-14T11:30:49.899Z,9.83
2018-11-14T11:31:49.632Z,9.79
2018-11-14T11:32:49.611Z,9.89
2018-11-14T11:33:49.598Z,9.85
2018-11-14T11:34:49.629Z,9.86
2018-11-14T11:35:49.593Z,9.89
2018-11-14T11:36:49.600Z,10.04
2018-11-14T11:37:49.557Z,10.18
2018-11-14T11:38:49.541Z,10.12
2018-11-14T11:39:49.531Z,10.09
2018-11-14T11:40:49.531Z,10.10
2018-11-14T11:41:49.510Z,10.04
2018-11-14T11:42:49.498Z,10.01
2018-11-14T11:43:49.480Z,9.99
2018-11-14T11:44:49.467Z,10.10
2018-11-14T11:45:49.477Z,10.09
2018-11-14T11:46:49.458Z,10.26
2018-11-14T11:47:49.434Z,10.17
2018-11-14T11:48:49.420Z,10.28
2018-11-14T11:49:49.407Z,10.43
2018-11-14T11:50:49.421Z,10.33
2018-11-14T11:51:49.382Z,10.39
2018-11-14T11:52:49.377Z,10.46
2018-11-14T11:53:49.362Z,10.40
2018-11-14T11:54:49.353Z,10.62
2018-11-14T11:55:49.360Z,10.59
2018-11-14T11:56:49.330Z,10.65
2018-11-14T11:57:49.355Z,10.71
2018-11-14T11:58:49.308Z,10.60
2018-11-14T11:59:49.553Z,10.66
2018-11-14T12:00:49.478Z,10.62
2018-11-14T12:01:49.263Z,10.60
2018-11-14T12:02:49.294Z,10.68
2018-11-14T12:03:49.253Z,10.74
2018-11-14T12:04:49.279Z,10.74
2018-11-14T12:05:49.278Z,10.66
2018-11-14T12:06:49.224Z,10.63
2018-11-14T12:07:49.193Z,10.70
2018-11-14T12:08:49.181Z,10.65
2018-11-14T12:09:49.172Z,10.78
2018-11-14T12:10:49.236Z,10.77
2018-11-14T12:11:49.161Z,10.66
2018-11-14T12:12:49.138Z,10.63
2018-11-14T12:13:49.175Z,10.58
2018-11-14T12:14:49.115Z,10.62
2018-11-14T12:15:49.099Z,10.60
2018-11-14T12:16:49.100Z,10.58
2018-11-14T12:17:49.180Z,10.44
2018-11-14T12:18:49.153Z,10.52
2018-11-14T12:19:49.055Z,10.52
2018-11-14T12:20:49.040Z,10.46
2018-11-14T12:21:49.040Z,10.42
2018-11-14T12:22:49.005Z,10.44
2018-11-14T12:23:49.151Z,10.47
2018-11-14T12:24:48.983Z,10.43
2018-11-14T12:25:48.972Z,10.42
2018-11-14T12:26:48.978Z,10.47
2018-11-14T12:27:48.949Z,10.66
2018-11-14T12:28:48.937Z,10.65
2018-11-14T12:29:48.983Z,10.80
2018-11-14T12:30:49.178Z,10.83
2018-11-14T12:31:48.934Z,10.81
2018-11-14T12:32:48.970Z,10.78
2018-11-14T12:33:48.876Z,10.71
2018-11-14T12:34:48.929Z,10.77
2018-11-14T12:35:48.885Z,10.80
2018-11-14T12:36:48.839Z,10.92
2018-11-14T12:37:48.899Z,10.80
2018-11-14T12:38:48.930Z,10.81
2018-11-14T12:39:48.806Z,10.78
2018-11-14T12:40:48.788Z,10.65
2018-11-14T12:41:48.809Z,10.71
2018-11-14T12:42:48.796Z,10.68
2018-11-14T12:43:48.751Z,10.62
2018-11-14T12:44:48.739Z,10.58
2018-11-14T12:45:48.855Z,10.47
2018-11-14T12:46:48.722Z,10.43
2018-11-14T12:47:48.720Z,10.32
2018-11-14T12:48:48.706Z,10.32
2018-11-14T12:49:48.714Z,10.33
2018-11-14T12:50:48.664Z,10.44
2018-11-14T12:51:48.660Z,10.40
2018-11-14T12:52:48.778Z,10.42
2018-11-14T12:53:48.687Z,10.66
2018-11-14T12:54:48.625Z,10.80
2018-11-14T12:55:48.601Z,10.86
2018-11-14T12:56:48.594Z,10.84
2018-11-14T12:57:48.582Z,10.91
2018-11-14T12:58:48.590Z,10.80
2018-11-14T12:59:48.616Z,10.70
2018-11-14T13:00:48.543Z,10.66
2018-11-14T13:01:48.528Z,10.63
2018-11-14T13:02:48.515Z,10.71
2018-11-14T13:03:48.536Z,10.77
2018-11-14T13:04:48.497Z,10.78
2018-11-14T13:05:48.484Z,10.71
2018-11-14T13:06:48.475Z,10.74
2018-11-14T13:07:48.463Z,10.76
2018-11-14T13:08:48.488Z,10.74
2018-11-14T13:09:48.441Z,10.78
2018-11-14T13:10:48.461Z,10.73
2018-11-14T13:11:48.412Z,10.73
2018-11-14T13:12:48.400Z,10.65
2018-11-14T13:13:48.390Z,10.70
2018-11-14T13:14:48.394Z,10.62
2018-11-14T13:15:48.365Z,10.65